createdAt,value
2019-01-16T06:52:28.541Z,70.20
2019-01-16T06:53:28.533Z,70.41
2019-01-16T06:54:28.496Z,71.13
2019-01-16T06:55:28.483Z,70.92
2019-01-16T06:56:28.474Z,70.82
2019-01-16T06:57:29.085Z,70.31
2019-01-16T06:58:28.492Z,70.82
2019-01-16T06:59:28.442Z,71.03
2019-01-16T07:00:28.431Z,70.82
2019-01-16T07:01:28.431Z,70.20
2019-01-16T07:02:28.413Z,70.10
2019-01-16T07:03:28.412Z,70.00
2019-01-16T07:04:28.433Z,69.76
2019-01-16T07:05:28.380Z,69.35
2019-01-16T07:06:28.372Z,69.55
2019-01-16T07:07:28.358Z,70.17
2019-01-16T07:08:28.357Z,70.17
2019-01-16T07:09:28.368Z,68.83
2019-01-16T07:10:28.332Z,69.04
2019-01-16T07:11:28.320Z,69.55
2019-01-16T07:12:28.313Z,68.55
2019-01-16T07:13:28.300Z,69.14
2019-01-16T07:14:28.309Z,69.14
2019-01-16T07:15:28.281Z,68.52
2019-01-16T07:16:28.297Z,68.21
2019-01-16T07:17:28.257Z,68.01
2019-01-16T07:18:28.248Z,67.60
2019-01-16T07:19:28.257Z,67.49
2019-01-16T07:20:28.236Z,67.70
2019-01-16T07:21:28.243Z,67.77
2019-01-16T07:22:28.222Z,67.49
2019-01-16T07:23:28.200Z,67.08
2019-01-16T07:24:28.216Z,67.29
2019-01-16T07:25:28.188Z,67.39
2019-01-16T07:26:28.170Z,67.29
2019-01-16T07:27:28.158Z,67.60
2019-01-16T07:28:28.146Z,67.29
2019-01-16T07:29:28.159Z,67.49
2019-01-16T07:30:28.149Z,67.39
2019-01-16T07:31:28.111Z,67.49
2019-01-16T07:32:28.102Z,67.63
2019-01-16T07:33:28.123Z,67.11
2019-01-16T07:34:28.107Z,67.49
2019-01-16T07:35:28.092Z,67.63
2019-01-16T07:36:28.064Z,67.00
2019-01-16T07:37:28.051Z,67.21
2019-01-16T07:38:28.043Z,67.00
2019-01-16T07:39:28.069Z,67.63
2019-01-16T07:40:28.028Z,68.04
2019-01-16T07:41:28.023Z,67.73
2019-01-16T07:42:28.000Z,68.35
2019-01-16T07:43:35.037Z,68.35
2019-01-16T07:44:27.978Z,68.14
2019-01-16T07:45:27.987Z,67.63
2019-01-16T07:46:27.958Z,67.93
2019-01-16T07:47:27.947Z,67.52
2019-01-16T07:48:27.949Z,67.73
2019-01-16T07:49:27.940Z,67.11
2019-01-16T07:50:27.953Z,67.52
2019-01-16T07:51:27.906Z,67.73
2019-01-16T07:52:27.897Z,67.00
2019-01-16T07:53:27.896Z,67.42
2019-01-16T07:54:27.877Z,67.35
2019-01-16T07:55:27.887Z,66.60
2019-01-16T07:56:27.854Z,66.70
2019-01-16T07:57:27.847Z,67.11
2019-01-16T07:58:27.855Z,67.42
2019-01-16T07:59:27.822Z,67.21
2019-01-16T08:00:27.831Z,67.21
2019-01-16T08:01:27.806Z,67.42
2019-01-16T08:02:27.799Z,67.11
2019-01-16T08:03:27.785Z,66.70
2019-01-16T08:04:27.790Z,67.32
2019-01-16T08:05:27.783Z,67.00
2019-01-16T08:06:27.751Z,67.52
2019-01-16T08:07:27.740Z,66.91
2019-01-16T08:08:27.735Z,66.70
2019-01-16T08:09:27.724Z,67.00
2019-01-16T08:10:27.733Z,66.91
2019-01-16T08:11:27.707Z,67.00
2019-01-16T08:12:27.702Z,67.00
2019-01-16T08:13:27.684Z,66.91
2019-01-16T08:14:27.676Z,66.60
2019-01-16T08:15:27.701Z,67.42
2019-01-16T08:16:27.648Z,67.11
2019-01-16T08:17:27.640Z,67.42
2019-01-16T08:18:27.629Z,67.42
2019-01-16T08:19:27.640Z,67.32
2019-01-16T08:20:27.621Z,67.32
2019-01-16T08:21:27.633Z,67.11
2019-01-16T08:22:27.589Z,67.42
2019-01-16T08:23:27.579Z,67.73
2019-01-16T08:24:27.565Z,68.04
2019-01-16T08:25:27.571Z,67.93
2019-01-16T08:26:27.578Z,67.83
2019-01-16T08:27:27.536Z,68.04
2019-01-16T08:28:27.524Z,68.14
2019-01-16T08:29:27.523Z,68.24
2019-01-16T08:30:27.507Z,68.04
2019-01-16T08:31:27.522Z,67.73
2019-01-16T08:32:27.489Z,67.73
2019-01-16T08:33:27.473Z,67.42
2019-01-16T08:34:27.464Z,67.63
2019-01-16T08:35:27.452Z,67.73
2019-01-16T08:36:27.463Z,68.45
2019-01-16T08:37:27.448Z,69.59
2019-01-16T08:38:27.423Z,68.14
2019-01-16T08:39:27.411Z,67.42
2019-01-16T08:40:27.400Z,66.80
2019-01-16T08:41:27.410Z,66.25
2019-01-16T08:42:27.380Z,66.56
2019-01-16T08:43:27.370Z,65.98
2019-01-16T08:44:27.381Z,66.39
2019-01-16T08:45:27.348Z,66.39
2019-01-16T08:46:27.358Z,66.60
2019-01-16T08:47:27.328Z,66.39
2019-01-16T08:48:27.317Z,66.39
2019-01-16T08:49:27.308Z,66.60
2019-01-16T08:50:32.465Z,65.98
2019-01-16T08:51:28.324Z,65.98
2019-01-16T08:52:27.276Z,66.83
2019-01-16T08:53:27.271Z,66.94
2019-01-16T08:54:27.255Z,66.94
2019-01-16T08:55:27.247Z,66.63
2019-01-16T08:56:27.236Z,66.83
2019-01-16T08:57:27.257Z,67.45
2019-01-16T08:58:27.219Z,67.45
2019-01-16T08:59:27.203Z,67.35
2019-01-16T09:00:27.197Z,67.24
2019-01-16T09:01:32.614Z,67.52
2019-01-16T09:02:28.194Z,67.55
2019-01-16T09:03:27.165Z,67.35
2019-01-16T09:04:27.157Z,67.83
2019-01-16T09:05:27.142Z,67.42
2019-01-16T09:06:27.130Z,67.42
2019-01-16T09:07:27.181Z,67.35
2019-01-16T09:08:27.111Z,67.21
2019-01-16T09:09:27.102Z,67.24
2019-01-16T09:10:27.096Z,67.45
2019-01-16T09:11:27.079Z,68.27
2019-01-16T09:12:27.090Z,68.00
2019-01-16T09:13:27.057Z,68.21
2019-01-16T09:14:27.054Z,69.65
2019-01-16T09:15:34.540Z,69.24
2019-01-16T09:16:28.026Z,69.03
2019-01-16T09:17:27.040Z,69.13
2019-01-16T09:18:27.009Z,69.34
2019-01-16T09:19:27.000Z,69.34
2019-01-16T09:20:26.991Z,70.37
2019-01-16T09:21:26.981Z,69.44
2019-01-16T09:22:26.993Z,70.37
2019-01-16T09:23:26.963Z,69.44
2019-01-16T09:24:26.951Z,69.75
2019-01-16T09:25:26.935Z,69.65
2019-01-16T09:26:26.935Z,69.24
2019-01-16T09:27:26.961Z,69.54
2019-01-16T09:28:26.902Z,68.93
2019-01-16T09:29:26.899Z,69.13
2019-01-16T09:30:27.290Z,69.96
2019-01-16T09:31:26.874Z,69.44
2019-01-16T09:32:26.863Z,69.03
2019-01-16T09:33:26.881Z,69.34
2019-01-16T09:34:26.857Z,69.54
2019-01-16T09:35:26.831Z,69.24
2019-01-16T09:36:26.821Z,68.93
2019-01-16T09:37:26.810Z,68.93
2019-01-16T09:38:26.835Z,69.65
2019-01-16T09:39:26.790Z,69.44
2019-01-16T09:40:26.777Z,69.03
2019-01-16T09:41:26.768Z,68.93
2019-01-16T09:42:26.756Z,68.07
2019-01-16T09:43:26.765Z,67.97
2019-01-16T09:44:26.754Z,68.07
2019-01-16T09:45:26.727Z,68.90
2019-01-16T09:46:26.716Z,68.38
2019-01-16T09:47:26.705Z,67.66
2019-01-16T09:48:26.714Z,67.24
2019-01-16T09:49:26.683Z,67.03
2019-01-16T09:50:26.676Z,67.45
2019-01-16T09:51:26.677Z,67.21
2019-01-16T09:52:26.655Z,67.24
2019-01-16T09:53:26.669Z,67.45
2019-01-16T09:54:26.640Z,67.55
2019-01-16T09:55:26.622Z,68.51
2019-01-16T09:56:26.610Z,68.51
2019-01-16T09:57:26.604Z,68.10
2019-01-16T09:58:26.612Z,68.10
2019-01-16T09:59:26.580Z,67.76
2019-01-16T10:00:26.570Z,68.62
2019-01-16T10:01:26.571Z,68.00
2019-01-16T10:02:26.559Z,68.17
2019-01-16T10:03:26.566Z,68.17
2019-01-16T10:04:26.534Z,67.86
2019-01-16T10:05:26.532Z,67.45
2019-01-16T10:06:26.512Z,67.48
2019-01-16T10:07:26.502Z,67.48
2019-01-16T10:08:26.576Z,68.82
2019-01-16T10:09:26.497Z,68.62
2019-01-16T10:10:26.473Z,68.21
2019-01-16T10:11:26.461Z,68.10
2019-01-16T10:12:26.462Z,68.62
2019-01-16T10:13:26.439Z,68.41
2019-01-16T10:14:26.450Z,68.51
2019-01-16T10:15:26.427Z,67.79
2019-01-16T10:16:26.405Z,67.45
2019-01-16T10:17:26.395Z,67.79
2019-01-16T10:18:26.383Z,67.90
2019-01-16T10:19:26.392Z,68.62
2019-01-16T10:20:26.381Z,68.41
2019-01-16T10:21:26.361Z,67.69
2019-01-16T10:22:26.350Z,67.58
2019-01-16T10:23:26.332Z,67.58
2019-01-16T10:24:26.340Z,67.69
2019-01-16T10:25:26.315Z,67.82
2019-01-16T10:26:26.303Z,68.30
2019-01-16T10:27:26.295Z,68.41
2019-01-16T10:28:26.281Z,68.41
2019-01-16T10:29:26.310Z,68.00
2019-01-16T10:30:26.317Z,68.51
2019-01-16T10:31:26.250Z,68.10
2019-01-16T10:32:26.260Z,68.30
2019-01-16T10:33:26.245Z,68.00
2019-01-16T10:34:26.225Z,68.65
2019-01-16T10:35:26.231Z,67.58
2019-01-16T10:36:26.200Z,67.48
2019-01-16T10:37:26.188Z,67.58
2019-01-16T10:38:26.177Z,67.69
2019-01-16T10:39:26.186Z,67.48
2019-01-16T10:40:26.209Z,67.79
2019-01-16T10:41:26.146Z,67.55
2019-01-16T10:42:26.140Z,67.58
2019-01-16T10:43:26.127Z,67.38
2019-01-16T10:44:26.128Z,67.38
2019-01-16T10:45:26.136Z,67.38
2019-01-16T10:46:26.113Z,67.48
2019-01-16T10:47:26.090Z,67.69
2019-01-16T10:48:26.116Z,67.48
2019-01-16T10:49:26.084Z,67.48
2019-01-16T10:50:26.088Z,67.79
2019-01-16T10:51:26.044Z,67.07
2019-01-16T10:52:26.034Z,67.38
2019-01-16T10:53:26.023Z,67.58
2019-01-16T10:54:26.015Z,67.38
2019-01-16T10:55:26.022Z,67.27
2019-01-16T10:56:25.993Z,67.27
2019-01-16T10:57:27.003Z,67.27
2019-01-16T10:58:25.970Z,67.03
2019-01-16T10:59:25.966Z,67.48
2019-01-16T11:00:26.006Z,67.45
2019-01-16T11:01:25.942Z,67.17
2019-01-16T11:02:25.931Z,67.17
2019-01-16T11:03:25.920Z,67.17
2019-01-16T11:04:25.916Z,67.48
2019-01-16T11:05:25.900Z,67.58
2019-01-16T11:06:25.929Z,67.27
2019-01-16T11:07:25.881Z,67.69
2019-01-16T11:08:25.868Z,67.48
2019-01-16T11:09:25.859Z,67.69
2019-01-16T11:10:25.849Z,67.58
2019-01-16T11:11:25.855Z,67.79
2019-01-16T11:12:25.847Z,68.51
2019-01-16T11:13:25.855Z,68.21
2019-01-16T11:14:25.881Z,68.62
2019-01-16T11:15:25.795Z,68.30
2019-01-16T11:16:25.805Z,68.21
2019-01-16T11:17:25.774Z,67.90
2019-01-16T11:18:25.781Z,67.79
2019-01-16T11:19:25.757Z,67.90
2019-01-16T11:20:25.744Z,67.90
2019-01-16T11:21:25.756Z,68.10
2019-01-16T11:22:25.723Z,68.41
2019-01-16T11:23:25.715Z,68.30
2019-01-16T11:24:25.753Z,67.48
2019-01-16T11:25:25.694Z,67.79
2019-01-16T11:26:25.702Z,68.30
2019-01-16T11:27:25.676Z,68.41
2019-01-16T11:28:25.662Z,68.72
2019-01-16T11:29:25.655Z,68.00
2019-01-16T11:30:25.654Z,68.00
2019-01-16T11:31:25.652Z,67.38
2019-01-16T11:32:25.619Z,67.66
2019-01-16T11:33:25.613Z,67.58
2019-01-16T11:34:25.604Z,67.79
2019-01-16T11:35:25.594Z,68.51
2019-01-16T11:36:25.629Z,68.65
2019-01-16T11:37:25.567Z,68.30
2019-01-16T11:38:25.558Z,68.00
2019-01-16T11:39:25.547Z,68.21
2019-01-16T11:40:25.536Z,68.24
2019-01-16T11:41:25.533Z,68.30
2019-01-16T11:42:25.545Z,68.10
2019-01-16T11:43:25.505Z,68.21
2019-01-16T11:44:25.505Z,68.00
2019-01-16T11:45:25.487Z,68.30
2019-01-16T11:46:25.473Z,68.21
2019-01-16T11:47:25.486Z,68.41
2019-01-16T11:48:25.461Z,68.34
2019-01-16T11:49:25.443Z,68.21
2019-01-16T11:50:25.432Z,68.41
2019-01-16T11:51:25.426Z,68.10
2019-01-16T11:52:25.436Z,68.62
2019-01-16T11:53:25.403Z,67.90
2019-01-16T11:54:25.405Z,68.10
2019-01-16T11:55:25.380Z,68.51
2019-01-16T11:56:25.370Z,68.41
2019-01-16T11:57:25.380Z,68.41
2019-01-16T11:58:25.349Z,68.00
2019-01-16T11:59:25.344Z,68.30
2019-01-16T12:00:25.367Z,68.30
2019-01-16T12:01:25.319Z,68.72
2019-01-16T12:02:25.326Z,68.00
2019-01-16T12:03:25.299Z,68.62
2019-01-16T12:04:25.289Z,68.10
2019-01-16T12:05:25.289Z,68.10
2019-01-16T12:06:25.278Z,68.10
2019-01-16T12:07:25.276Z,68.21
2019-01-16T12:08:25.246Z,68.34
2019-01-16T12:09:25.238Z,68.41
2019-01-16T12:10:25.226Z,69.24
2019-01-16T12:11:25.213Z,68.54
2019-01-16T12:12:25.240Z,69.06
2019-01-16T12:13:25.197Z,69.06
2019-01-16T12:14:25.182Z,69.37
2019-01-16T12:15:25.173Z,69.37
2019-01-16T12:16:25.162Z,68.85
2019-01-16T12:17:25.342Z,68.96
2019-01-16T12:18:25.149Z,68.96
2019-01-16T12:19:25.133Z,68.96
2019-01-16T12:20:25.120Z,69.13
2019-01-16T12:21:26.490Z,69.24
2019-01-16T12:22:25.103Z,69.13
2019-01-16T12:23:25.111Z,69.99
2019-01-16T12:24:25.098Z,68.82
2019-01-16T12:25:25.071Z,69.27
2019-01-16T12:26:25.059Z,69.03
2019-01-16T12:27:25.051Z,69.54
2019-01-16T12:28:25.060Z,69.03
2019-01-16T12:29:25.027Z,69.13
2019-01-16T12:30:25.037Z,69.03
2019-01-16T12:31:25.012Z,68.30
2019-01-16T12:32:25.002Z,68.10
2019-01-16T12:33:25.006Z,68.30
2019-01-16T12:34:24.976Z,67.90
2019-01-16T12:35:24.978Z,68.10
2019-01-16T12:36:24.961Z,68.21
2019-01-16T12:37:24.948Z,68.51
2019-01-16T12:38:24.953Z,68.62
2019-01-16T12:39:24.928Z,68.27
2019-01-16T12:40:24.915Z,68.07
2019-01-16T12:41:24.931Z,68.51
2019-01-16T12:42:24.897Z,68.82
2019-01-16T12:43:24.902Z,68.62
2019-01-16T12:44:24.876Z,68.21
2019-01-16T12:45:24.874Z,68.21
2019-01-16T12:46:24.852Z,68.10
2019-01-16T12:47:24.866Z,68.10
2019-01-16T12:48:24.851Z,68.10
2019-01-16T12:49:24.849Z,67.45
2019-01-16T12:50:24.825Z,67.66
2019-01-16T12:51:24.800Z,67.48
2019-01-16T12:52:24.791Z,67.58
2019-01-16T12:53:24.807Z,68.10
2019-01-16T12:54:24.772Z,67.79
2019-01-16T12:55:24.771Z,68.30
2019-01-16T12:56:24.756Z,68.41
2019-01-16T12:57:24.744Z,68.10
2019-01-16T12:58:24.730Z,68.00
2019-01-16T12:59:24.745Z,68.41
2019-01-16T13:00:24.713Z,68.38
2019-01-16T13:01:24.697Z,68.38
2019-01-16T13:02:24.688Z,68.17
2019-01-16T13:03:24.682Z,68.07
2019-01-16T13:04:24.684Z,68.48
2019-01-16T13:05:24.654Z,68.59
2019-01-16T13:07:24.653Z,67.24
2019-01-16T13:08:24.632Z,67.45
2019-01-16T13:09:24.635Z,67.03
2019-01-16T13:10:24.616Z,67.24
2019-01-16T13:11:24.605Z,67.24
2019-01-16T13:12:24.580Z,67.45
2019-01-16T13:13:24.578Z,67.32
2019-01-16T13:14:29.976Z,66.83
2019-01-16T13:15:25.549Z,66.73
2019-01-16T13:16:24.543Z,67.45
2019-01-16T13:17:24.527Z,67.17
2019-01-16T13:18:24.516Z,67.17
2019-01-16T13:19:24.526Z,67.24
2019-01-16T13:20:24.499Z,67.14
2019-01-16T13:21:24.492Z,67.55
2019-01-16T13:22:24.477Z,67.14
2019-01-16T13:23:24.464Z,67.55
2019-01-16T13:24:24.497Z,67.14
2019-01-16T13:25:24.444Z,67.07
2019-01-16T13:26:24.431Z,67.55
2019-01-16T13:27:24.444Z,67.66
2019-01-16T13:28:24.412Z,67.35
2019-01-16T13:29:24.401Z,67.66
2019-01-16T13:30:24.407Z,67.45
2019-01-16T13:31:24.381Z,67.76
2019-01-16T13:32:24.370Z,67.55
2019-01-16T13:33:24.371Z,67.66
2019-01-16T13:34:24.355Z,67.55
2019-01-16T13:35:24.355Z,67.14
2019-01-16T13:36:24.328Z,67.24
2019-01-16T13:37:24.322Z,67.55
2019-01-16T13:38:24.307Z,67.63
2019-01-16T13:39:24.300Z,67.45
2019-01-16T13:40:24.325Z,66.73
2019-01-16T13:41:24.278Z,67.45
2019-01-16T13:42:24.272Z,67.03
2019-01-16T13:43:24.260Z,67.14
2019-01-16T13:44:24.245Z,67.66
2019-01-16T13:45:24.252Z,67.66
2019-01-16T13:46:24.229Z,67.76
2019-01-16T13:47:24.225Z,67.45
2019-01-16T13:48:24.204Z,67.45
2019-01-16T13:49:24.192Z,67.14
2019-01-16T13:50:24.213Z,67.14
2019-01-16T13:51:24.186Z,67.66
2019-01-16T13:52:24.165Z,67.66
2019-01-16T13:53:24.152Z,67.14
2019-01-16T13:54:24.141Z,67.55
2019-01-16T13:55:24.137Z,67.24
2019-01-16T13:56:24.144Z,67.24
2019-01-16T13:57:24.130Z,67.03
2019-01-16T13:58:24.103Z,67.14
2019-01-16T13:59:24.094Z,67.00
2019-01-16T14:00:24.079Z,67.11
2019-01-16T14:01:24.088Z,67.11
2019-01-16T14:02:24.063Z,66.91
2019-01-16T14:03:24.070Z,66.70
2019-01-16T14:04:24.036Z,66.91
2019-01-16T14:05:24.024Z,67.00
2019-01-16T14:06:24.052Z,66.91
2019-01-16T14:07:24.002Z,66.80
2019-01-16T14:08:23.998Z,66.80
2019-01-16T14:09:23.998Z,66.80
2019-01-16T14:10:23.971Z,66.70
2019-01-16T14:11:23.977Z,66.91
2019-01-16T14:12:23.950Z,65.88
2019-01-16T14:13:24.129Z,66.28
2019-01-16T14:14:23.931Z,66.80
2019-01-16T14:15:23.923Z,66.39
2019-01-16T14:16:23.946Z,66.08
2019-01-16T14:17:23.908Z,66.28
2019-01-16T14:18:23.889Z,66.39
2019-01-16T14:19:23.877Z,66.08
2019-01-16T14:20:23.868Z,66.18
2019-01-16T14:21:23.857Z,66.28
2019-01-16T14:22:23.866Z,66.18
2019-01-16T14:23:23.852Z,66.18
2019-01-16T14:24:23.825Z,66.60
2019-01-16T14:25:23.818Z,66.80
2019-01-16T14:26:23.805Z,65.88
2019-01-16T14:27:23.817Z,66.21
2019-01-16T14:28:23.784Z,66.42
2019-01-16T14:29:23.794Z,66.63
2019-01-16T14:30:23.765Z,66.31
2019-01-16T14:31:23.753Z,66.18
2019-01-16T14:32:23.760Z,66.63
2019-01-16T14:33:23.732Z,66.63
2019-01-16T14:34:23.745Z,66.94
2019-01-16T14:35:23.716Z,66.63
2019-01-16T14:36:23.703Z,67.38
2019-01-16T14:37:23.710Z,67.24
2019-01-16T14:38:23.683Z,67.38
2019-01-16T14:39:23.669Z,67.35
2019-01-16T14:40:23.672Z,66.76
2019-01-16T14:41:23.656Z,66.66
2019-01-16T14:42:23.659Z,66.66
2019-01-16T14:43:23.629Z,66.66
2019-01-16T14:44:23.620Z,67.27
2019-01-16T14:45:23.606Z,67.24
2019-01-16T14:46:23.606Z,67.48
2019-01-16T14:47:23.625Z,67.35
2019-01-16T14:48:23.586Z,67.27
2019-01-16T14:49:23.567Z,67.48
2019-01-16T14:50:23.561Z,66.86
2019-01-16T14:51:23.542Z,67.38
2019-01-16T14:52:23.533Z,66.66
2019-01-16T14:53:23.540Z,67.58
2019-01-16T14:54:23.512Z,67.27
2019-01-16T14:55:23.503Z,67.27
2019-01-16T14:56:23.510Z,67.48
2019-01-16T14:57:23.493Z,67.17
2019-01-16T14:58:23.490Z,67.27
2019-01-16T14:59:23.458Z,67.35
2019-01-16T15:00:23.450Z,67.07
2019-01-16T15:01:23.440Z,67.24
2019-01-16T15:02:23.438Z,67.38
2019-01-16T15:03:23.443Z,67.17
2019-01-16T15:04:23.416Z,67.27
2019-01-16T15:05:23.397Z,67.38
2019-01-16T15:06:23.387Z,67.07
2019-01-16T15:07:23.380Z,67.03
2019-01-16T15:08:23.398Z,67.69
2019-01-16T15:09:23.360Z,67.69
2019-01-16T15:10:23.357Z,67.58
2019-01-16T15:11:23.335Z,67.58
2019-01-16T15:12:23.324Z,67.79
2019-01-16T15:13:23.335Z,68.00
2019-01-16T15:14:23.304Z,68.00
2019-01-16T15:15:23.294Z,67.90
2019-01-16T15:16:23.290Z,68.10
2019-01-16T15:17:23.271Z,68.21
2019-01-16T15:18:23.279Z,68.30
2019-01-16T15:19:23.252Z,68.51
2019-01-16T15:20:23.241Z,68.41
2019-01-16T15:21:23.235Z,68.00
2019-01-16T15:22:23.222Z,68.41
2019-01-16T15:23:23.227Z,68.00
2019-01-16T15:24:23.200Z,67.79
2019-01-16T15:25:23.190Z,67.79
2019-01-16T15:26:23.179Z,68.10
2019-01-16T15:27:23.179Z,68.30
2019-01-16T15:28:23.191Z,67.69
2019-01-16T15:29:23.148Z,67.48
2019-01-16T15:30:23.137Z,67.38
2019-01-16T15:31:23.131Z,66.97
2019-01-16T15:32:23.117Z,67.58
2019-01-16T15:33:23.114Z,67.07
2019-01-16T15:34:23.131Z,67.17
2019-01-16T15:35:23.112Z,67.58
2019-01-16T15:36:23.088Z,67.38
2019-01-16T15:37:23.070Z,67.79
2019-01-16T15:38:23.065Z,68.30
2019-01-16T15:39:23.066Z,68.62
2019-01-16T15:40:23.039Z,68.51
2019-01-16T15:41:23.041Z,68.51
2019-01-16T15:42:23.020Z,68.34
2019-01-16T15:43:23.002Z,68.00
2019-01-16T15:44:23.012Z,68.44
2019-01-16T15:45:22.989Z,68.13
2019-01-16T15:46:22.975Z,68.13
2019-01-16T15:47:22.975Z,68.24
2019-01-16T15:48:22.953Z,68.85
2019-01-16T15:49:22.962Z,68.54
2019-01-16T15:50:22.939Z,68.54
2019-01-16T15:51:22.925Z,68.27
2019-01-16T15:52:22.911Z,68.34
2019-01-16T15:53:22.914Z,68.37
2019-01-16T15:54:23.918Z,68.54
2019-01-16T15:55:22.882Z,68.34
2019-01-16T15:56:22.871Z,68.27
2019-01-16T15:57:22.867Z,68.85
2019-01-16T15:58:22.865Z,68.06
2019-01-16T15:59:22.861Z,68.44
2019-01-16T16:00:22.829Z,68.24
2019-01-16T16:01:22.838Z,68.13
2019-01-16T16:02:22.811Z,68.16
2019-01-16T16:03:22.804Z,69.30
2019-01-16T16:04:22.816Z,69.71
2019-01-16T16:05:22.791Z,69.40
2019-01-16T16:06:22.766Z,69.06
2019-01-16T16:07:22.759Z,69.61
2019-01-16T16:08:22.745Z,68.85
2019-01-16T16:09:22.736Z,69.09
2019-01-16T16:10:22.751Z,69.20
2019-01-16T16:11:22.715Z,68.99
2019-01-16T16:12:22.706Z,69.51
2019-01-16T16:13:22.693Z,69.30
2019-01-16T16:14:22.684Z,69.71
2019-01-16T16:15:22.703Z,69.71
2019-01-16T16:16:22.663Z,69.51
2019-01-16T16:17:22.656Z,69.71
2019-01-16T16:18:22.644Z,70.23
2019-01-16T16:19:22.633Z,69.82
2019-01-16T16:20:22.641Z,69.71
2019-01-16T16:21:22.628Z,69.51
2019-01-16T16:22:22.613Z,70.06
2019-01-16T16:23:22.593Z,70.47
2019-01-16T16:24:22.585Z,69.85
2019-01-16T16:25:22.616Z,70.37
2019-01-16T16:26:22.561Z,70.26
2019-01-16T16:27:22.550Z,70.78
2019-01-16T16:28:22.552Z,71.19
2019-01-16T16:29:22.529Z,70.71
2019-01-16T16:30:22.520Z,70.61
2019-01-16T16:31:22.527Z,71.09
2019-01-16T16:32:22.499Z,71.43
2019-01-16T16:33:22.489Z,71.43
2019-01-16T16:34:22.483Z,70.98
2019-01-16T16:35:22.477Z,71.22
2019-01-16T16:36:22.481Z,71.12
2019-01-16T16:37:22.453Z,71.33
2019-01-16T16:38:22.440Z,71.19
2019-01-16T16:39:22.440Z,71.33
2019-01-16T16:40:22.422Z,71.43
2019-01-16T16:41:22.425Z,71.12
2019-01-16T16:42:22.400Z,71.02
2019-01-16T16:43:22.388Z,71.22
2019-01-16T16:44:22.383Z,71.33
2019-01-16T16:45:22.372Z,71.53
2019-01-16T16:46:22.378Z,71.53
2019-01-16T16:47:22.349Z,71.53
2019-01-16T16:48:22.336Z,71.84
2019-01-16T16:49:22.337Z,71.95
2019-01-16T16:50:22.317Z,71.53
2019-01-16T16:51:22.324Z,71.74
2019-01-16T16:52:25.953Z,71.64
2019-01-16T16:53:22.284Z,71.74
2019-01-16T16:54:22.280Z,71.95
2019-01-16T16:55:22.263Z,72.16
2019-01-16T16:56:22.290Z,72.05
2019-01-16T16:57:22.245Z,71.84
2019-01-16T16:58:22.246Z,72.05
2019-01-16T16:59:22.224Z,71.64
2019-01-16T17:00:22.215Z,72.26
2019-01-16T17:01:22.222Z,72.05
2019-01-16T17:02:22.201Z,72.29
2019-01-16T17:03:22.204Z,72.47
2019-01-16T17:04:22.174Z,72.50
2019-01-16T17:05:22.162Z,72.60
2019-01-16T17:06:22.171Z,73.02
2019-01-16T17:07:22.149Z,72.50
2019-01-16T17:08:22.131Z,72.91
2019-01-16T17:09:22.124Z,73.02
2019-01-16T17:10:22.111Z,73.02
2019-01-16T17:11:22.135Z,73.02
2019-01-16T17:12:22.095Z,73.02
2019-01-16T17:13:22.078Z,72.81
2019-01-16T17:14:22.097Z,72.91
2019-01-16T17:15:22.056Z,73.22
2019-01-16T17:16:22.049Z,73.12
2019-01-16T17:17:22.056Z,73.05
2019-01-16T17:18:22.029Z,73.02
2019-01-16T17:19:22.038Z,72.81
2019-01-16T17:20:22.010Z,73.25
2019-01-16T17:21:22.000Z,73.46
2019-01-16T17:22:22.004Z,73.46
2019-01-16T17:23:21.977Z,74.19
2019-01-16T17:24:21.965Z,73.67
2019-01-16T17:25:21.978Z,73.67
2019-01-16T17:26:21.988Z,73.64
2019-01-16T17:27:21.953Z,73.36
2019-01-16T17:28:21.926Z,73.67
2019-01-16T17:29:21.914Z,73.67
2019-01-16T17:30:21.905Z,73.77
2019-01-16T17:31:21.896Z,73.77
2019-01-16T17:32:21.903Z,73.67
2019-01-16T17:33:21.873Z,73.57
2019-01-16T17:34:21.875Z,73.67
2019-01-16T17:35:21.852Z,73.57
2019-01-16T17:36:21.844Z,73.77
2019-01-16T17:37:21.855Z,73.67
2019-01-16T17:38:21.829Z,74.05
2019-01-16T17:39:21.812Z,73.67
2019-01-16T17:40:21.804Z,73.57
2019-01-16T17:41:21.796Z,73.36
2019-01-16T17:42:21.802Z,73.88
2019-01-16T17:43:21.773Z,73.46
2019-01-16T17:44:21.767Z,74.40
2019-01-16T17:45:21.751Z,75.12
2019-01-16T17:46:21.740Z,75.22
2019-01-16T17:47:21.754Z,74.19
2019-01-16T17:48:21.718Z,74.81
2019-01-16T17:49:21.710Z,75.46
2019-01-16T17:50:21.702Z,74.74
2019-01-16T17:51:21.687Z,75.46
2019-01-16T17:52:21.717Z,75.67
2019-01-16T17:53:21.691Z,75.36
2019-01-16T17:54:21.661Z,75.98
2019-01-16T17:55:21.660Z,75.67
2019-01-16T17:56:21.653Z,75.46
2019-01-16T17:57:21.672Z,75.26
2019-01-16T17:58:21.619Z,74.53
2019-01-16T17:59:21.609Z,73.91
2019-01-16T18:00:21.603Z,74.12
2019-01-16T18:01:21.595Z,73.77
2019-01-16T18:02:21.622Z,74.12
2019-01-16T18:03:21.612Z,74.32
2019-01-16T18:04:21.587Z,74.02
2019-01-16T18:05:21.554Z,74.02
2019-01-16T18:06:21.536Z,73.71
2019-01-16T18:07:21.526Z,73.25
2019-01-16T18:08:21.541Z,73.15
2019-01-16T18:09:21.502Z,72.85
2019-01-16T18:10:21.495Z,72.85
2019-01-16T18:11:21.482Z,72.53
2019-01-16T18:12:21.476Z,72.64
2019-01-16T18:13:21.485Z,72.64
2019-01-16T18:14:21.506Z,72.12
2019-01-16T18:15:21.450Z,72.33
2019-01-16T18:16:21.442Z,72.91
2019-01-16T18:17:21.422Z,72.02
2019-01-16T18:18:21.433Z,71.36
2019-01-16T18:19:21.405Z,71.47
2019-01-16T18:20:21.408Z,71.36
2019-01-16T18:21:21.432Z,71.26
2019-01-16T18:22:21.404Z,71.26
2019-01-16T18:23:21.380Z,70.50
2019-01-16T18:24:21.352Z,70.61
2019-01-16T18:25:21.339Z,69.88
2019-01-16T18:26:21.328Z,70.29
2019-01-16T18:27:21.319Z,69.57
2019-01-16T18:28:21.339Z,70.50
2019-01-16T18:29:21.297Z,70.57
2019-01-16T18:30:21.286Z,70.40
2019-01-16T18:31:21.275Z,69.47
2019-01-16T18:32:21.286Z,70.50
2019-01-16T18:33:21.257Z,69.37
2019-01-16T18:34:21.379Z,70.09
2019-01-16T18:35:21.235Z,70.40
2019-01-16T18:36:21.231Z,69.78
2019-01-16T18:37:21.220Z,69.78
2019-01-16T18:38:21.204Z,69.33
2019-01-16T18:39:21.226Z,69.64
2019-01-16T18:40:21.184Z,69.33
2019-01-16T18:41:21.173Z,69.74
2019-01-16T18:42:21.165Z,69.98
2019-01-16T18:43:21.153Z,69.67
2019-01-16T18:44:21.163Z,69.47
2019-01-16T18:45:21.136Z,69.54
2019-01-16T18:46:21.127Z,69.43
2019-01-16T18:47:21.116Z,70.09
2019-01-16T18:48:21.101Z,69.43
2019-01-16T18:49:21.110Z,69.43
2019-01-16T18:50:21.083Z,69.43
2019-01-16T18:51:21.072Z,69.26
2019-01-16T18:52:21.068Z,69.33
2019-01-16T18:53:21.053Z,69.47
2019-01-16T18:54:21.060Z,69.37
2019-01-16T18:55:21.039Z,69.26
2019-01-16T18:56:21.017Z,69.37
2019-01-16T18:57:21.042Z,69.23
2019-01-16T18:58:21.000Z,70.16
2019-01-16T18:59:21.041Z,69.33
2019-01-16T19:00:20.976Z,69.57
2019-01-16T19:01:20.972Z,69.54
2019-01-16T19:02:20.963Z,69.12
2019-01-16T19:03:20.949Z,69.33
2019-01-16T19:04:20.946Z,69.54
2019-01-16T19:05:20.943Z,69.78
2019-01-16T19:06:20.931Z,69.85
2019-01-16T19:07:20.903Z,69.67
2019-01-16T19:08:20.892Z,70.29
2019-01-16T19:09:20.894Z,69.67
2019-01-16T19:10:20.896Z,69.78
2019-01-16T19:11:20.862Z,69.37
2019-01-16T19:12:20.874Z,69.78
2019-01-16T19:13:20.839Z,69.88
2019-01-16T19:14:20.831Z,69.78
2019-01-16T19:15:20.842Z,69.67
2019-01-16T19:16:20.838Z,69.57
2019-01-16T19:17:20.799Z,70.40
2019-01-16T19:18:20.792Z,70.09
2019-01-16T19:19:20.791Z,69.67
2019-01-16T19:20:20.794Z,69.74
2019-01-16T19:21:20.760Z,69.85
2019-01-16T19:22:20.756Z,70.37
2019-01-16T19:23:20.738Z,70.26
2019-01-16T19:24:20.748Z,69.64
2019-01-16T19:25:20.818Z,69.64
2019-01-16T19:26:20.738Z,69.43
2019-01-16T19:27:20.739Z,70.06
2019-01-16T19:28:20.692Z,69.43
2019-01-16T19:29:20.730Z,69.85
2019-01-16T19:30:20.680Z,69.23
2019-01-16T19:31:20.711Z,69.51
2019-01-16T19:32:20.643Z,69.61
2019-01-16T19:33:20.669Z,69.20
2019-01-16T19:34:20.631Z,69.02
2019-01-16T19:35:20.627Z,68.92
2019-01-16T19:36:20.671Z,68.78
2019-01-16T19:37:20.619Z,69.20
2019-01-16T19:38:20.625Z,69.40
2019-01-16T19:39:20.585Z,69.40
2019-01-16T19:40:20.657Z,70.03
2019-01-16T19:41:20.613Z,69.40
2019-01-16T19:42:21.306Z,68.88
2019-01-16T19:43:20.544Z,69.30
2019-01-16T19:44:20.519Z,69.30
2019-01-16T19:45:20.545Z,69.30